sensor_id;sensor_type;location;lat;lon;timestamp;temperature;humidity
4637;DHT22;2331;48.806;9.140;2023-04-25T00:01:33;11.90;1.00
4637;DHT22;2331;48.806;9.140;2023-04-25T00:04:01;12.00;1.00
4637;DHT22;2331;48.806;9.140;2023-04-25T00:06:29;12.00;1.00
4637;DHT22;2331;48.806;9.140;2023-04-25T00:08:57;11.90;1.00
4637;DHT22;2331;48.806;9.140;2023-04-25T00:11:24;11.90;1.00
4637;DHT22;2331;48.806;9.140;2023-04-25T00:13:51;12.00;1.00
4637;DHT22;2331;48.806;9.140;2023-04-25T00:16:18;11.90;1.00
4637;DHT22;2331;48.806;9.140;2023-04-25T00:18:44;11.90;1.00
4637;DHT22;2331;48.806;9.140;2023-04-25T00:21:17;11.90;1.00
4637;DHT22;2331;48.806;9.140;2023-04-25T00:23:45;11.90;1.00
4637;DHT22;2331;48.806;9.140;2023-04-25T00:26:12;11.90;1.00
4637;DHT22;2331;48.806;9.140;2023-04-25T00:28:39;12.00;1.00
4637;DHT22;2331;48.806;9.140;2023-04-25T00:31:06;12.00;1.00
4637;DHT22;2331;48.806;9.140;2023-04-25T00:33:32;11.90;1.00
4637;DHT22;2331;48.806;9.140;2023-04-25T00:36:00;11.90;1.00
4637;DHT22;2331;48.806;9.140;2023-04-25T00:38:27;12.00;1.00
4637;DHT22;2331;48.806;9.140;2023-04-25T00:40:55;11.90;1.00
4637;DHT22;2331;48.806;9.140;2023-04-25T00:43:23;11.90;1.00
4637;DHT22;2331;48.806;9.140;2023-04-25T00:45:52;12.00;1.00
4637;DHT22;2331;48.806;9.140;2023-04-25T00:48:20;12.00;1.00
4637;DHT22;2331;48.806;9.140;2023-04-25T00:50:51;12.00;1.00
4637;DHT22;2331;48.806;9.140;2023-04-25T00:53:18;12.10;1.00
4637;DHT22;2331;48.806;9.140;2023-04-25T00:55:45;12.10;1.00
4637;DHT22;2331;48.806;9.140;2023-04-25T00:58:14;12.10;1.00
4637;DHT22;2331;48.806;9.140;2023-04-25T01:00:41;12.20;1.00
4637;DHT22;2331;48.806;9.140;2023-04-25T01:03:08;12.10;1.00
4637;DHT22;2331;48.806;9.140;2023-04-25T01:05:35;12.10;1.00
4637;DHT22;2331;48.806;9.140;2023-04-25T01:08:02;12.10;1.00
4637;DHT22;2331;48.806;9.140;2023-04-25T01:10:29;12.00;1.00
4637;DHT22;2331;48.806;9.140;2023-04-25T01:12:56;12.00;1.00
4637;DHT22;2331;48.806;9.140;2023-04-25T01:15:24;12.00;1.00
4637;DHT22;2331;48.806;9.140;2023-04-25T01:17:51;11.90;1.00
4637;DHT22;2331;48.806;9.140;2023-04-25T01:20:21;11.90;1.00
4637;DHT22;2331;48.806;9.140;2023-04-25T01:22:50;11.90;1.00
4637;DHT22;2331;48.806;9.140;2023-04-25T01:25:18;12.00;1.00
4637;DHT22;2331;48.806;9.140;2023-04-25T01:27:46;12.00;1.00
4637;DHT22;2331;48.806;9.140;2023-04-25T01:30:13;12.00;1.00
4637;DHT22;2331;48.806;9.140;2023-04-25T01:32:40;12.00;1.00
4637;DHT22;2331;48.806;9.140;2023-04-25T01:35:09;11.90;1.00
4637;DHT22;2331;48.806;9.140;2023-04-25T01:37:36;11.90;1.00
4637;DHT22;2331;48.806;9.140;2023-04-25T01:40:06;11.80;1.00
4637;DHT22;2331;48.806;9.140;2023-04-25T01:42:33;11.90;1.00
4637;DHT22;2331;48.806;9.140;2023-04-25T01:45:00;11.80;1.00
4637;DHT22;2331;48.806;9.140;2023-04-25T01:47:27;11.80;1.00
4637;DHT22;2331;48.806;9.140;2023-04-25T01:49:54;11.80;1.00
4637;DHT22;2331;48.806;9.140;2023-04-25T01:52:21;11.70;1.00
4637;DHT22;2331;48.806;9.140;2023-04-25T01:54:48;11.70;1.00
4637;DHT22;2331;48.806;9.140;2023-04-25T01:57:17;11.70;1.00
4637;DHT22;2331;48.806;9.140;2023-04-25T01:59:44;11.70;1.00
4637;DHT22;2331;48.806;9.140;2023-04-25T02:02:11;11.70;1.00
4637;DHT22;2331;48.806;9.140;2023-04-25T02:04:38;11.70;1.00
4637;DHT22;2331;48.806;9.140;2023-04-25T02:07:04;11.70;1.00
4637;DHT22;2331;48.806;9.140;2023-04-25T02:09:31;11.80;1.00
4637;DHT22;2331;48.806;9.140;2023-04-25T02:11:58;11.70;1.00
4637;DHT22;2331;48.806;9.140;2023-04-25T02:14:27;11.80;1.00
4637;DHT22;2331;48.806;9.140;2023-04-25T02:16:54;11.70;1.00
4637;DHT22;2331;48.806;9.140;2023-04-25T02:19:20;11.80;1.00
4637;DHT22;2331;48.806;9.140;2023-04-25T02:21:47;11.70;1.00
4637;DHT22;2331;48.806;9.140;2023-04-25T02:24:14;11.60;1.00
4637;DHT22;2331;48.806;9.140;2023-04-25T02:26:41;11.50;1.00
4637;DHT22;2331;48.806;9.140;2023-04-25T02:29:07;11.50;1.00
4637;DHT22;2331;48.806;9.140;2023-04-25T02:31:36;11.50;1.00
4637;DHT22;2331;48.806;9.140;2023-04-25T02:34:02;11.50;1.00
4637;DHT22;2331;48.806;9.140;2023-04-25T02:36:29;11.60;1.00
4637;DHT22;2331;48.806;9.140;2023-04-25T02:38:59;11.60;1.00
4637;DHT22;2331;48.806;9.140;2023-04-25T02:41:26;11.60;1.00
4637;DHT22;2331;48.806;9.140;2023-04-25T02:43:53;11.70;1.00
4637;DHT22;2331;48.806;9.140;2023-04-25T02:46:20;11.70;1.00
4637;DHT22;2331;48.806;9.140;2023-04-25T02:48:48;11.70;1.00
4637;DHT22;2331;48.806;9.140;2023-04-25T02:51:15;11.70;1.00
4637;DHT22;2331;48.806;9.140;2023-04-25T02:53:41;11.80;1.00
4637;DHT22;2331;48.806;9.140;2023-04-25T02:56:08;11.80;1.00
4637;DHT22;2331;48.806;9.140;2023-04-25T02:58:35;11.80;1.00
4637;DHT22;2331;48.806;9.140;2023-04-25T03:01:02;11.80;1.00
4637;DHT22;2331;48.806;9.140;2023-04-25T03:03:29;11.70;1.00
4637;DHT22;2331;48.806;9.140;2023-04-25T03:05:57;11.80;1.00
4637;DHT22;2331;48.806;9.140;2023-04-25T03:08:24;11.70;1.00
4637;DHT22;2331;48.806;9.140;2023-04-25T03:10:52;11.70;1.00
4637;DHT22;2331;48.806;9.140;2023-04-25T03:13:21;11.60;1.00
4637;DHT22;2331;48.806;9.140;2023-04-25T03:15:47;11.70;1.00
4637;DHT22;2331;48.806;9.140;2023-04-25T03:18:14;11.70;1.00
4637;DHT22;2331;48.806;9.140;2023-04-25T03:20:41;11.70;1.00
4637;DHT22;2331;48.806;9.140;2023-04-25T03:23:09;11.70;1.00
4637;DHT22;2331;48.806;9.140;2023-04-25T03:25:36;11.70;1.00
4637;DHT22;2331;48.806;9.140;2023-04-25T03:28:03;11.70;1.00
4637;DHT22;2331;48.806;9.140;2023-04-25T03:30:30;11.80;1.00
4637;DHT22;2331;48.806;9.140;2023-04-25T03:32:56;11.80;1.00
4637;DHT22;2331;48.806;9.140;2023-04-25T03:35:23;11.70;1.00
4637;DHT22;2331;48.806;9.140;2023-04-25T03:37:50;11.70;1.00
4637;DHT22;2331;48.806;9.140;2023-04-25T03:40:18;11.70;1.00
4637;DHT22;2331;48.806;9.140;2023-04-25T03:42:45;11.70;1.00
4637;DHT22;2331;48.806;9.140;2023-04-25T03:45:12;11.70;1.00
4637;DHT22;2331;48.806;9.140;2023-04-25T03:47:38;11.70;1.00
4637;DHT22;2331;48.806;9.140;2023-04-25T03:50:06;11.60;1.00
4637;DHT22;2331;48.806;9.140;2023-04-25T03:52:33;11.60;1.00
4637;DHT22;2331;48.806;9.140;2023-04-25T03:55:00;11.60;1.00
4637;DHT22;2331;48.806;9.140;2023-04-25T03:57:28;11.60;1.00
4637;DHT22;2331;48.806;9.140;2023-04-25T03:59:55;11.60;1.00
4637;DHT22;2331;48.806;9.140;2023-04-25T04:02:22;11.60;1.00
4637;DHT22;2331;48.806;9.140;2023-04-25T04:04:48;11.50;1.00
4637;DHT22;2331;48.806;9.140;2023-04-25T04:07:15;11.50;1.00
4637;DHT22;2331;48.806;9.140;2023-04-25T04:09:42;11.50;1.00
4637;DHT22;2331;48.806;9.140;2023-04-25T04:12:09;11.50;1.00
4637;DHT22;2331;48.806;9.140;2023-04-25T04:14:37;11.50;1.00
4637;DHT22;2331;48.806;9.140;2023-04-25T04:17:04;11.50;1.00
4637;DHT22;2331;48.806;9.140;2023-04-25T04:19:31;11.60;1.00
4637;DHT22;2331;48.806;9.140;2023-04-25T04:21:58;11.60;1.00
4637;DHT22;2331;48.806;9.140;2023-04-25T04:24:24;11.60;1.00
4637;DHT22;2331;48.806;9.140;2023-04-25T04:26:51;11.60;1.00
4637;DHT22;2331;48.806;9.140;2023-04-25T04:29:18;11.60;1.00
4637;DHT22;2331;48.806;9.140;2023-04-25T04:31:49;11.50;1.00
4637;DHT22;2331;48.806;9.140;2023-04-25T04:34:16;11.50;1.00
4637;DHT22;2331;48.806;9.140;2023-04-25T04:36:43;11.50;1.00
4637;DHT22;2331;48.806;9.140;2023-04-25T04:39:10;11.50;1.00
4637;DHT22;2331;48.806;9.140;2023-04-25T04:41:37;11.50;1.00
4637;DHT22;2331;48.806;9.140;2023-04-25T04:44:05;11.50;1.00
4637;DHT22;2331;48.806;9.140;2023-04-25T04:46:34;11.50;1.00
4637;DHT22;2331;48.806;9.140;2023-04-25T04:49:04;11.40;1.00
4637;DHT22;2331;48.806;9.140;2023-04-25T04:51:31;11.50;1.00
4637;DHT22;2331;48.806;9.140;2023-04-25T04:53:58;11.50;1.00
4637;DHT22;2331;48.806;9.140;2023-04-25T04:56:27;11.50;1.00
4637;DHT22;2331;48.806;9.140;2023-04-25T04:58:54;11.50;1.00
4637;DHT22;2331;48.806;9.140;2023-04-25T05:01:21;11.40;1.00
4637;DHT22;2331;48.806;9.140;2023-04-25T05:03:48;11.30;1.00
4637;DHT22;2331;48.806;9.140;2023-04-25T05:06:16;11.40;1.00
4637;DHT22;2331;48.806;9.140;2023-04-25T05:08:43;11.30;1.00
4637;DHT22;2331;48.806;9.140;2023-04-25T05:11:10;11.40;1.00
4637;DHT22;2331;48.806;9.140;2023-04-25T05:13:37;11.50;1.00
4637;DHT22;2331;48.806;9.140;2023-04-25T05:16:04;11.50;1.00
4637;DHT22;2331;48.806;9.140;2023-04-25T05:18:30;11.40;1.00
4637;DHT22;2331;48.806;9.140;2023-04-25T05:20:57;11.50;1.00
4637;DHT22;2331;48.806;9.140;2023-04-25T05:23:25;11.30;1.00
4637;DHT22;2331;48.806;9.140;2023-04-25T05:25:53;11.30;1.00
4637;DHT22;2331;48.806;9.140;2023-04-25T05:28:20;11.10;1.00
4637;DHT22;2331;48.806;9.140;2023-04-25T05:30:46;11.20;1.00
4637;DHT22;2331;48.806;9.140;2023-04-25T05:33:13;11.10;1.00
4637;DHT22;2331;48.806;9.140;2023-04-25T05:35:40;11.10;1.00
4637;DHT22;2331;48.806;9.140;2023-04-25T05:38:07;10.90;1.00
4637;DHT22;2331;48.806;9.140;2023-04-25T05:40:35;10.70;1.00
4637;DHT22;2331;48.806;9.140;2023-04-25T05:43:02;10.60;1.00
4637;DHT22;2331;48.806;9.140;2023-04-25T05:45:28;10.80;1.00
4637;DHT22;2331;48.806;9.140;2023-04-25T05:47:55;10.80;1.00
4637;DHT22;2331;48.806;9.140;2023-04-25T05:50:22;10.90;1.00
4637;DHT22;2331;48.806;9.140;2023-04-25T05:52:49;10.80;1.00
4637;DHT22;2331;48.806;9.140;2023-04-25T05:55:16;10.90;1.00
4637;DHT22;2331;48.806;9.140;2023-04-25T05:57:45;10.90;1.00
4637;DHT22;2331;48.806;9.140;2023-04-25T06:00:12;10.90;1.00
4637;DHT22;2331;48.806;9.140;2023-04-25T06:02:41;10.90;1.00
4637;DHT22;2331;48.806;9.140;2023-04-25T06:05:08;10.90;1.00
4637;DHT22;2331;48.806;9.140;2023-04-25T06:07:35;11.00;1.00
4637;DHT22;2331;48.806;9.140;2023-04-25T06:10:06;11.00;1.00
4637;DHT22;2331;48.806;9.140;2023-04-25T06:12:33;11.10;1.00
4637;DHT22;2331;48.806;9.140;2023-04-25T06:15:01;11.20;1.00
4637;DHT22;2331;48.806;9.140;2023-04-25T06:17:29;11.20;1.00
4637;DHT22;2331;48.806;9.140;2023-04-25T06:19:55;11.20;1.00
4637;DHT22;2331;48.806;9.140;2023-04-25T06:22:22;11.20;1.00
4637;DHT22;2331;48.806;9.140;2023-04-25T06:24:49;11.20;1.00
4637;DHT22;2331;48.806;9.140;2023-04-25T06:27:16;11.30;1.00
4637;DHT22;2331;48.806;9.140;2023-04-25T06:29:42;11.10;1.00
4637;DHT22;2331;48.806;9.140;2023-04-25T06:32:10;11.20;1.00
4637;DHT22;2331;48.806;9.140;2023-04-25T06:34:37;11.20;1.00
4637;DHT22;2331;48.806;9.140;2023-04-25T06:37:04;11.20;1.00
4637;DHT22;2331;48.806;9.140;2023-04-25T06:39:30;11.20;1.00
4637;DHT22;2331;48.806;9.140;2023-04-25T06:41:57;11.30;1.00
4637;DHT22;2331;48.806;9.140;2023-04-25T06:44:24;11.20;1.00
4637;DHT22;2331;48.806;9.140;2023-04-25T06:46:51;11.30;1.00
4637;DHT22;2331;48.806;9.140;2023-04-25T06:49:19;11.40;1.00
4637;DHT22;2331;48.806;9.140;2023-04-25T06:51:46;11.40;1.00
4637;DHT22;2331;48.806;9.140;2023-04-25T06:54:13;11.40;1.00
4637;DHT22;2331;48.806;9.140;2023-04-25T06:56:40;11.40;1.00
4637;DHT22;2331;48.806;9.140;2023-04-25T06:59:06;11.40;1.00
4637;DHT22;2331;48.806;9.140;2023-04-25T07:01:33;11.30;1.00
4637;DHT22;2331;48.806;9.140;2023-04-25T07:04:00;11.30;1.00
4637;DHT22;2331;48.806;9.140;2023-04-25T07:06:28;11.30;1.00
4637;DHT22;2331;48.806;9.140;2023-04-25T07:08:56;11.40;1.00
4637;DHT22;2331;48.806;9.140;2023-04-25T07:11:23;11.30;1.00
4637;DHT22;2331;48.806;9.140;2023-04-25T07:13:50;11.40;1.00
4637;DHT22;2331;48.806;9.140;2023-04-25T07:16:17;11.50;1.00
4637;DHT22;2331;48.806;9.140;2023-04-25T07:18:44;11.40;1.00
4637;DHT22;2331;48.806;9.140;2023-04-25T07:21:11;11.30;1.00
4637;DHT22;2331;48.806;9.140;2023-04-25T07:23:39;11.30;1.00
4637;DHT22;2331;48.806;9.140;2023-04-25T07:26:06;11.40;1.00
4637;DHT22;2331;48.806;9.140;2023-04-25T07:28:33;11.30;1.00
4637;DHT22;2331;48.806;9.140;2023-04-25T07:31:00;11.20;1.00
4637;DHT22;2331;48.806;9.140;2023-04-25T07:33:27;11.20;1.00
4637;DHT22;2331;48.806;9.140;2023-04-25T07:35:54;11.20;1.00
4637;DHT22;2331;48.806;9.140;2023-04-25T07:38:21;11.20;1.00
4637;DHT22;2331;48.806;9.140;2023-04-25T07:40:49;11.20;1.00
4637;DHT22;2331;48.806;9.140;2023-04-25T07:43:16;11.10;1.00
4637;DHT22;2331;48.806;9.140;2023-04-25T07:45:43;11.20;1.00
4637;DHT22;2331;48.806;9.140;2023-04-25T07:48:10;11.20;1.00
4637;DHT22;2331;48.806;9.140;2023-04-25T07:50:37;11.20;1.00
4637;DHT22;2331;48.806;9.140;2023-04-25T07:53:04;11.20;1.00
4637;DHT22;2331;48.806;9.140;2023-04-25T07:55:30;11.30;1.00
4637;DHT22;2331;48.806;9.140;2023-04-25T07:57:59;11.30;1.00
4637;DHT22;2331;48.806;9.140;2023-04-25T08:00:25;11.40;1.00
4637;DHT22;2331;48.806;9.140;2023-04-25T08:02:52;11.40;1.00
4637;DHT22;2331;48.806;9.140;2023-04-25T08:05:19;11.40;1.00
4637;DHT22;2331;48.806;9.140;2023-04-25T08:07:45;11.30;1.00
4637;DHT22;2331;48.806;9.140;2023-04-25T08:10:12;11.30;1.00
4637;DHT22;2331;48.806;9.140;2023-04-25T08:12:39;11.30;1.00
4637;DHT22;2331;48.806;9.140;2023-04-25T08:15:08;11.40;1.00
4637;DHT22;2331;48.806;9.140;2023-04-25T08:17:35;11.40;1.00
4637;DHT22;2331;48.806;9.140;2023-04-25T08:20:02;11.40;1.00
4637;DHT22;2331;48.806;9.140;2023-04-25T08:22:31;11.30;1.00
4637;DHT22;2331;48.806;9.140;2023-04-25T08:24:58;11.20;1.00
4637;DHT22;2331;48.806;9.140;2023-04-25T08:27:24;11.20;1.00
4637;DHT22;2331;48.806;9.140;2023-04-25T08:29:51;11.30;1.00
4637;DHT22;2331;48.806;9.140;2023-04-25T08:32:19;11.20;1.00
4637;DHT22;2331;48.806;9.140;2023-04-25T08:34:47;11.20;1.00
4637;DHT22;2331;48.806;9.140;2023-04-25T08:37:14;11.30;1.00
4637;DHT22;2331;48.806;9.140;2023-04-25T08:39:41;11.20;1.00
4637;DHT22;2331;48.806;9.140;2023-04-25T08:42:08;11.20;1.00
4637;DHT22;2331;48.806;9.140;2023-04-25T08:44:34;11.10;1.00
4637;DHT22;2331;48.806;9.140;2023-04-25T08:47:02;10.90;1.00
4637;DHT22;2331;48.806;9.140;2023-04-25T08:49:32;10.90;1.00
4637;DHT22;2331;48.806;9.140;2023-04-25T08:52:00;10.90;1.00
4637;DHT22;2331;48.806;9.140;2023-04-25T08:54:28;10.80;1.00
4637;DHT22;2331;48.806;9.140;2023-04-25T08:56:56;10.70;1.00
4637;DHT22;2331;48.806;9.140;2023-04-25T08:59:23;10.80;1.00
4637;DHT22;2331;48.806;9.140;2023-04-25T09:01:50;10.90;1.00
4637;DHT22;2331;48.806;9.140;2023-04-25T09:04:18;11.00;1.00
4637;DHT22;2331;48.806;9.140;2023-04-25T09:06:46;11.10;1.00
4637;DHT22;2331;48.806;9.140;2023-04-25T09:09:13;11.10;1.00
4637;DHT22;2331;48.806;9.140;2023-04-25T09:11:39;11.10;1.00
4637;DHT22;2331;48.806;9.140;2023-04-25T09:14:11;11.10;1.00
4637;DHT22;2331;48.806;9.140;2023-04-25T09:17:00;10.90;1.00
4637;DHT22;2331;48.806;9.140;2023-04-25T09:19:29;10.90;1.00
4637;DHT22;2331;48.806;9.140;2023-04-25T09:21:58;11.00;1.00
4637;DHT22;2331;48.806;9.140;2023-04-25T09:24:36;11.00;1.00
4637;DHT22;2331;48.806;9.140;2023-04-25T09:27:04;11.00;1.00
4637;DHT22;2331;48.806;9.140;2023-04-25T09:29:32;11.10;1.00
4637;DHT22;2331;48.806;9.140;2023-04-25T09:32:14;11.20;1.00
4637;DHT22;2331;48.806;9.140;2023-04-25T09:34:42;11.20;1.00
4637;DHT22;2331;48.806;9.140;2023-04-25T09:37:10;11.20;1.00
4637;DHT22;2331;48.806;9.140;2023-04-25T09:39:38;11.30;1.00
4637;DHT22;2331;48.806;9.140;2023-04-25T09:42:09;11.20;1.00
4637;DHT22;2331;48.806;9.140;2023-04-25T09:44:36;11.20;1.00
4637;DHT22;2331;48.806;9.140;2023-04-25T09:47:03;11.30;1.00
4637;DHT22;2331;48.806;9.140;2023-04-25T09:49:30;11.30;1.00
4637;DHT22;2331;48.806;9.140;2023-04-25T09:51:58;11.30;1.00
4637;DHT22;2331;48.806;9.140;2023-04-25T09:54:27;11.30;1.00
4637;DHT22;2331;48.806;9.140;2023-04-25T09:56:54;11.30;1.00
4637;DHT22;2331;48.806;9.140;2023-04-25T09:59:21;11.30;1.00
4637;DHT22;2331;48.806;9.140;2023-04-25T10:01:49;11.30;1.00
4637;DHT22;2331;48.806;9.140;2023-04-25T10:04:19;11.30;1.00
4637;DHT22;2331;48.806;9.140;2023-04-25T10:06:48;11.20;1.00
4637;DHT22;2331;48.806;9.140;2023-04-25T10:09:16;11.10;1.00
4637;DHT22;2331;48.806;9.140;2023-04-25T10:11:46;11.00;1.00
4637;DHT22;2331;48.806;9.140;2023-04-25T10:14:14;11.00;1.00
4637;DHT22;2331;48.806;9.140;2023-04-25T10:16:42;11.00;1.00
4637;DHT22;2331;48.806;9.140;2023-04-25T10:19:09;11.00;1.00
4637;DHT22;2331;48.806;9.140;2023-04-25T10:21:44;11.00;1.00
4637;DHT22;2331;48.806;9.140;2023-04-25T10:24:13;10.90;1.00
4637;DHT22;2331;48.806;9.140;2023-04-25T10:26:40;10.90;1.00
4637;DHT22;2331;48.806;9.140;2023-04-25T10:29:09;10.90;1.00
4637;DHT22;2331;48.806;9.140;2023-04-25T10:31:45;11.00;1.00
4637;DHT22;2331;48.806;9.140;2023-04-25T10:34:12;10.90;1.00
4637;DHT22;2331;48.806;9.140;2023-04-25T10:36:39;10.90;1.00
4637;DHT22;2331;48.806;9.140;2023-04-25T10:39:07;10.70;1.00
4637;DHT22;2331;48.806;9.140;2023-04-25T10:41:46;10.80;1.00
4637;DHT22;2331;48.806;9.140;2023-04-25T10:44:14;10.70;1.00
4637;DHT22;2331;48.806;9.140;2023-04-25T10:46:44;10.60;1.00
4637;DHT22;2331;48.806;9.140;2023-04-25T10:49:29;10.60;1.00
4637;DHT22;2331;48.806;9.140;2023-04-25T10:52:11;10.50;1.00
4637;DHT22;2331;48.806;9.140;2023-04-25T10:54:41;10.40;1.00
4637;DHT22;2331;48.806;9.140;2023-04-25T10:57:26;10.50;1.00
4637;DHT22;2331;48.806;9.140;2023-04-25T10:59:58;10.50;1.00
4637;DHT22;2331;48.806;9.140;2023-04-25T11:02:26;10.60;1.00
4637;DHT22;2331;48.806;9.140;2023-04-25T11:04:53;10.50;1.00
4637;DHT22;2331;48.806;9.140;2023-04-25T11:07:26;10.40;1.00
4637;DHT22;2331;48.806;9.140;2023-04-25T11:09:55;10.30;1.00
4637;DHT22;2331;48.806;9.140;2023-04-25T11:12:24;10.30;1.00
4637;DHT22;2331;48.806;9.140;2023-04-25T11:14:59;10.10;1.00
4637;DHT22;2331;48.806;9.140;2023-04-25T11:17:28;10.10;1.00
4637;DHT22;2331;48.806;9.140;2023-04-25T11:19:55;10.10;1.00
4637;DHT22;2331;48.806;9.140;2023-04-25T11:22:22;10.10;1.00
4637;DHT22;2331;48.806;9.140;2023-04-25T11:24:49;10.10;1.00
4637;DHT22;2331;48.806;9.140;2023-04-25T11:27:17;10.00;1.00
4637;DHT22;2331;48.806;9.140;2023-04-25T11:29:43;10.10;1.00
4637;DHT22;2331;48.806;9.140;2023-04-25T11:32:12;10.00;1.00
4637;DHT22;2331;48.806;9.140;2023-04-25T11:34:38;9.90;1.00
4637;DHT22;2331;48.806;9.140;2023-04-25T11:37:05;10.00;1.00
4637;DHT22;2331;48.806;9.140;2023-04-25T11:39:32;10.10;1.00
4637;DHT22;2331;48.806;9.140;2023-04-25T11:41:59;10.10;1.00
4637;DHT22;2331;48.806;9.140;2023-04-25T11:44:26;10.10;1.00
4637;DHT22;2331;48.806;9.140;2023-04-25T11:46:58;10.20;1.00
4637;DHT22;2331;48.806;9.140;2023-04-25T11:49:30;10.20;1.00
4637;DHT22;2331;48.806;9.140;2023-04-25T11:51:57;10.20;1.00
4637;DHT22;2331;48.806;9.140;2023-04-25T11:54:24;10.30;1.00
4637;DHT22;2331;48.806;9.140;2023-04-25T11:56:51;10.20;1.00
4637;DHT22;2331;48.806;9.140;2023-04-25T11:59:23;10.30;1.00
4637;DHT22;2331;48.806;9.140;2023-04-25T12:01:50;10.30;1.00
4637;DHT22;2331;48.806;9.140;2023-04-25T12:04:18;10.40;1.00
4637;DHT22;2331;48.806;9.140;2023-04-25T12:06:48;10.50;1.00
4637;DHT22;2331;48.806;9.140;2023-04-25T12:09:16;10.50;1.00
4637;DHT22;2331;48.806;9.140;2023-04-25T12:11:44;10.60;1.00
4637;DHT22;2331;48.806;9.140;2023-04-25T12:14:12;10.60;1.00
4637;DHT22;2331;48.806;9.140;2023-04-25T12:16:42;10.70;1.00
4637;DHT22;2331;48.806;9.140;2023-04-25T12:19:13;10.70;1.00
4637;DHT22;2331;48.806;9.140;2023-04-25T12:21:39;10.70;1.00
4637;DHT22;2331;48.806;9.140;2023-04-25T12:24:12;10.90;1.00
4637;DHT22;2331;48.806;9.140;2023-04-25T12:26:47;10.90;1.00
4637;DHT22;2331;48.806;9.140;2023-04-25T12:29:16;11.00;1.00
4637;DHT22;2331;48.806;9.140;2023-04-25T12:31:43;10.90;1.00
4637;DHT22;2331;48.806;9.140;2023-04-25T12:34:10;11.00;1.00
4637;DHT22;2331;48.806;9.140;2023-04-25T12:36:37;11.10;1.00
4637;DHT22;2331;48.806;9.140;2023-04-25T12:39:04;11.00;1.00
4637;DHT22;2331;48.806;9.140;2023-04-25T12:41:32;11.00;1.00
4637;DHT22;2331;48.806;9.140;2023-04-25T12:43:59;11.20;1.00
4637;DHT22;2331;48.806;9.140;2023-04-25T12:46:25;11.10;1.00
4637;DHT22;2331;48.806;9.140;2023-04-25T12:48:53;11.20;1.00
4637;DHT22;2331;48.806;9.140;2023-04-25T12:51:20;11.20;1.00
4637;DHT22;2331;48.806;9.140;2023-04-25T12:53:50;11.20;1.00
4637;DHT22;2331;48.806;9.140;2023-04-25T12:56:17;11.30;1.00
4637;DHT22;2331;48.806;9.140;2023-04-25T12:58:46;11.30;1.00
4637;DHT22;2331;48.806;9.140;2023-04-25T13:01:13;11.20;1.00
4637;DHT22;2331;48.806;9.140;2023-04-25T13:03:40;11.30;1.00
4637;DHT22;2331;48.806;9.140;2023-04-25T13:06:07;11.20;1.00
4637;DHT22;2331;48.806;9.140;2023-04-25T13:08:34;11.30;1.00
4637;DHT22;2331;48.806;9.140;2023-04-25T13:11:02;11.30;1.00
4637;DHT22;2331;48.806;9.140;2023-04-25T13:13:29;11.50;1.00
4637;DHT22;2331;48.806;9.140;2023-04-25T13:15:58;11.40;1.00
4637;DHT22;2331;48.806;9.140;2023-04-25T13:18:25;11.40;1.00
4637;DHT22;2331;48.806;9.140;2023-04-25T13:20:52;11.60;1.00
4637;DHT22;2331;48.806;9.140;2023-04-25T13:23:19;11.50;1.00
4637;DHT22;2331;48.806;9.140;2023-04-25T13:25:46;11.50;1.00
4637;DHT22;2331;48.806;9.140;2023-04-25T13:28:14;11.70;1.00
4637;DHT22;2331;48.806;9.140;2023-04-25T13:30:42;11.80;1.00
4637;DHT22;2331;48.806;9.140;2023-04-25T13:33:10;11.80;1.00
4637;DHT22;2331;48.806;9.140;2023-04-25T13:35:38;11.80;1.00
4637;DHT22;2331;48.806;9.140;2023-04-25T13:38:05;11.70;1.00
4637;DHT22;2331;48.806;9.140;2023-04-25T13:40:32;11.70;1.00
4637;DHT22;2331;48.806;9.140;2023-04-25T13:42:59;11.70;1.00
4637;DHT22;2331;48.806;9.140;2023-04-25T13:45:25;11.70;1.00
4637;DHT22;2331;48.806;9.140;2023-04-25T13:47:52;11.70;1.00
4637;DHT22;2331;48.806;9.140;2023-04-25T13:50:20;11.70;1.00
4637;DHT22;2331;48.806;9.140;2023-04-25T13:52:47;11.70;1.00
4637;DHT22;2331;48.806;9.140;2023-04-25T13:55:14;11.90;1.00
4637;DHT22;2331;48.806;9.140;2023-04-25T13:57:41;12.00;1.00
4637;DHT22;2331;48.806;9.140;2023-04-25T14:00:08;12.00;1.00
4637;DHT22;2331;48.806;9.140;2023-04-25T14:02:36;12.10;1.00
4637;DHT22;2331;48.806;9.140;2023-04-25T14:05:03;12.20;1.00
4637;DHT22;2331;48.806;9.140;2023-04-25T14:07:32;12.30;1.00
4637;DHT22;2331;48.806;9.140;2023-04-25T14:10:00;12.30;1.00
4637;DHT22;2331;48.806;9.140;2023-04-25T14:12:30;12.30;1.00
4637;DHT22;2331;48.806;9.140;2023-04-25T14:14:57;12.30;1.00
4637;DHT22;2331;48.806;9.140;2023-04-25T14:17:24;12.40;1.00
4637;DHT22;2331;48.806;9.140;2023-04-25T14:19:51;12.50;1.00
4637;DHT22;2331;48.806;9.140;2023-04-25T14:22:17;12.50;1.00
4637;DHT22;2331;48.806;9.140;2023-04-25T14:24:46;12.50;1.00
4637;DHT22;2331;48.806;9.140;2023-04-25T14:27:13;12.70;1.00
4637;DHT22;2331;48.806;9.140;2023-04-25T14:29:40;12.80;1.00
4637;DHT22;2331;48.806;9.140;2023-04-25T14:32:07;12.90;1.00
4637;DHT22;2331;48.806;9.140;2023-04-25T14:34:34;12.90;1.00
4637;DHT22;2331;48.806;9.140;2023-04-25T14:37:00;13.10;1.00
4637;DHT22;2331;48.806;9.140;2023-04-25T14:39:27;13.10;1.00
4637;DHT22;2331;48.806;9.140;2023-04-25T14:41:56;13.10;1.00
4637;DHT22;2331;48.806;9.140;2023-04-25T14:44:23;13.20;1.00
4637;DHT22;2331;48.806;9.140;2023-04-25T14:46:50;13.10;1.00
4637;DHT22;2331;48.806;9.140;2023-04-25T14:49:17;13.10;1.00
4637;DHT22;2331;48.806;9.140;2023-04-25T14:51:45;13.00;1.00
4637;DHT22;2331;48.806;9.140;2023-04-25T14:54:12;13.00;1.00
4637;DHT22;2331;48.806;9.140;2023-04-25T14:56:38;13.00;1.00
4637;DHT22;2331;48.806;9.140;2023-04-25T14:59:07;13.10;1.00
4637;DHT22;2331;48.806;9.140;2023-04-25T15:01:34;13.10;1.00
4637;DHT22;2331;48.806;9.140;2023-04-25T15:04:01;13.30;1.00
4637;DHT22;2331;48.806;9.140;2023-04-25T15:06:28;13.20;1.00
4637;DHT22;2331;48.806;9.140;2023-04-25T15:08:55;13.20;1.00
4637;DHT22;2331;48.806;9.140;2023-04-25T15:11:24;13.00;1.00
4637;DHT22;2331;48.806;9.140;2023-04-25T15:13:51;13.10;1.00
4637;DHT22;2331;48.806;9.140;2023-04-25T15:16:20;13.20;1.00
4637;DHT22;2331;48.806;9.140;2023-04-25T15:18:46;13.30;1.00
4637;DHT22;2331;48.806;9.140;2023-04-25T15:21:13;13.40;1.00
4637;DHT22;2331;48.806;9.140;2023-04-25T15:23:40;13.50;1.00
4637;DHT22;2331;48.806;9.140;2023-04-25T15:26:08;13.40;1.00
4637;DHT22;2331;48.806;9.140;2023-04-25T15:28:34;13.50;1.00
4637;DHT22;2331;48.806;9.140;2023-04-25T15:31:02;13.70;1.00
4637;DHT22;2331;48.806;9.140;2023-04-25T15:33:30;13.70;1.00
4637;DHT22;2331;48.806;9.140;2023-04-25T15:35:57;13.70;1.00
4637;DHT22;2331;48.806;9.140;2023-04-25T15:38:24;13.70;1.00
4637;DHT22;2331;48.806;9.140;2023-04-25T15:40:52;13.60;1.00
4637;DHT22;2331;48.806;9.140;2023-04-25T15:43:20;13.60;1.00
4637;DHT22;2331;48.806;9.140;2023-04-25T15:45:47;13.50;1.00
4637;DHT22;2331;48.806;9.140;2023-04-25T15:48:14;13.50;1.00
4637;DHT22;2331;48.806;9.140;2023-04-25T15:50:42;13.40;1.00
4637;DHT22;2331;48.806;9.140;2023-04-25T15:53:09;13.50;1.00
4637;DHT22;2331;48.806;9.140;2023-04-25T15:55:36;13.50;1.00
4637;DHT22;2331;48.806;9.140;2023-04-25T15:58:03;13.30;1.00
4637;DHT22;2331;48.806;9.140;2023-04-25T16:00:30;13.30;1.00
4637;DHT22;2331;48.806;9.140;2023-04-25T16:03:01;13.20;1.00
4637;DHT22;2331;48.806;9.140;2023-04-25T16:05:28;13.20;1.00
4637;DHT22;2331;48.806;9.140;2023-04-25T16:07:56;13.40;1.00
4637;DHT22;2331;48.806;9.140;2023-04-25T16:10:23;13.40;1.00
4637;DHT22;2331;48.806;9.140;2023-04-25T16:12:52;13.30;1.00
4637;DHT22;2331;48.806;9.140;2023-04-25T16:15:20;13.30;1.00
4637;DHT22;2331;48.806;9.140;2023-04-25T16:17:47;13.30;1.00
4637;DHT22;2331;48.806;9.140;2023-04-25T16:20:14;13.30;1.00